Time;durP1;ratioP1;P1;durP2;ratioP2;P2;SDS_P1;SDS_P2;PMS_P1;PMS_P2;Temp;Humidity;BMP_temperature;BMP_pressure;BME280_temperature;BME280_humidity;BME280_pressure;Samples;Min_cycle;Max_cycle;Signal;HPM_P1;HPM_P2
2022/03/07 00:01:53;;;;;;;5.57;3.53;;;-1.10;99.90;-2.20;100816;;;;555523;256;24150;-79
2022/03/07 00:04:20;;;;;;;10.03;6.30;;;-1.00;99.90;-2.10;100813;;;;551217;256;24143;-79
2022/03/07 00:06:51;;;;;;;6.90;5.20;;;-1.00;99.90;-2.20;100807;;;;559429;254;24202;-79
2022/03/07 00:09:20;;;;;;;16.20;6.30;;;-1.00;99.90;-2.10;100818;;;;550952;256;24136;-79
2022/03/07 00:11:44;;;;;;;9.67;5.77;;;-1.00;99.90;-2.20;100808;;;;556191;254;24172;-79
2022/03/07 00:14:12;;;;;;;9.53;6.13;;;-1.00;99.90;-2.20;100808;;;;551519;256;24152;-79
2022/03/07 00:16:40;;;;;;;17.50;9.73;;;-1.10;99.90;-2.20;100811;;;;559504;254;24239;-79
2022/03/07 00:19:08;;;;;;;15.43;11.00;;;-1.10;99.90;-2.20;100814;;;;559869;256;24181;-79
2022/03/07 00:21:39;;;;;;;21.90;12.93;;;-1.10;99.90;-2.20;100808;;;;551971;256;24195;-81
2022/03/07 00:24:04;;;;;;;21.87;12.77;;;-1.10;99.90;-2.30;100809;;;;551370;256;24170;-82
2022/03/07 00:26:32;;;;;;;24.83;13.93;;;-1.10;99.90;-2.30;100803;;;;551621;256;24171;-80
2022/03/07 00:29:04;;;;;;;19.53;13.37;;;-1.20;99.90;-2.30;100804;;;;551687;256;24162;-81
2022/03/07 00:31:28;;;;;;;21.53;13.63;;;-1.20;99.90;-2.30;100803;;;;550765;256;24136;-79
2022/03/07 00:33:56;;;;;;;24.48;13.02;;;-1.10;99.90;-2.20;100800;;;;546407;256;35785;-81
2022/03/07 00:36:25;;;;;;;10.53;5.97;;;-1.10;99.90;-2.20;100806;;;;551413;256;24124;-79
2022/03/07 00:38:51;;;;;;;10.30;5.20;;;-1.10;99.90;-2.20;100800;;;;551339;256;24100;-79
2022/03/07 00:41:19;;;;;;;13.00;6.17;;;-1.10;99.90;-2.20;100795;;;;559780;255;24173;-79
2022/03/07 00:43:47;;;;;;;14.60;7.47;;;-1.10;99.90;-2.20;100786;;;;559648;255;24150;-80
2022/03/07 00:46:15;;;;;;;13.40;6.43;;;-1.10;99.90;-2.30;100787;;;;559905;256;24143;-79
2022/03/07 00:48:43;;;;;;;15.83;7.40;;;-1.10;99.90;-2.30;100795;;;;551831;253;24133;-80
2022/03/07 00:51:14;;;;;;;8.03;6.07;;;-1.20;99.90;-2.30;100789;;;;559916;256;24161;-80
2022/03/07 00:53:39;;;;;;;17.70;11.80;;;-1.20;99.90;-2.30;100779;;;;559738;256;24179;-80
2022/03/07 00:56:10;;;;;;;18.40;10.70;;;-1.20;99.90;-2.30;100783;;;;551779;256;24147;-80
2022/03/07 00:58:36;;;;;;;21.97;14.27;;;-1.30;99.90;-2.40;100776;;;;551730;256;24156;-80
2022/03/07 01:01:04;;;;;;;18.43;11.87;;;-1.30;99.90;-2.40;100767;;;;551786;256;24132;-80
2022/03/07 01:03:32;;;;;;;20.77;13.40;;;-1.30;99.90;-2.40;100774;;;;557177;256;24153;-79
2022/03/07 01:06:00;;;;;;;19.95;10.57;;;-1.30;99.90;-2.40;100765;;;;547214;254;35756;-80
2022/03/07 01:08:28;;;;;;;14.03;5.87;;;-1.30;99.90;-2.30;100761;;;;553125;256;24140;-81
2022/03/07 01:10:56;;;;;;;9.30;5.97;;;-1.20;99.90;-2.30;100745;;;;561109;256;24132;-80
2022/03/07 01:13:25;;;;;;;8.97;5.83;;;-1.20;99.90;-2.30;100743;;;;560821;255;24147;-80
2022/03/07 01:15:52;;;;;;;10.13;5.97;;;-1.20;99.90;-2.30;100738;;;;559253;254;24150;-80
2022/03/07 01:18:20;;;;;;;12.20;5.87;;;-1.20;99.90;-2.30;100737;;;;559201;254;24248;-78
2022/03/07 01:20:48;;;;;;;10.83;6.10;;;-1.20;99.90;-2.30;100733;;;;550998;256;24178;-79
2022/03/07 01:23:16;;;;;;;15.33;8.73;;;-1.20;99.90;-2.40;100725;;;;559227;254;24166;-79
2022/03/07 01:25:45;;;;;;;15.80;8.93;;;-1.20;99.90;-2.40;100724;;;;558865;255;24158;-78
2022/03/07 01:28:13;;;;;;;17.87;10.43;;;-1.30;99.90;-2.30;100732;;;;558859;256;24220;-79
2022/03/07 01:30:41;;;;;;;13.63;11.00;;;-1.20;99.90;-2.40;100722;;;;550734;254;24146;-78
2022/03/07 01:33:10;;;;;;;13.27;10.17;;;-1.30;99.90;-2.40;100730;;;;550810;256;24140;-79
2022/03/07 01:35:37;;;;;;;18.27;11.23;;;-1.30;99.90;-2.40;100728;;;;550714;256;24135;-78
2022/03/07 01:38:05;;;;;;;17.13;9.63;;;-1.30;99.90;-2.40;100720;;;;550700;256;24174;-80
2022/03/07 01:40:37;;;;;;;14.70;10.00;;;-1.30;99.90;-2.40;100719;;;;558884;256;24142;-79
2022/03/07 01:43:06;;;;;;;16.37;10.10;;;-1.30;99.90;-2.40;100716;;;;558294;254;24143;-79
2022/03/07 01:45:35;;;;;;;15.03;10.77;;;-1.30;99.90;-2.40;100715;;;;550273;256;24207;-80
2022/03/07 01:48:01;;;;;;;15.50;11.27;;;-1.30;99.90;-2.40;100711;;;;550589;256;24156;-79
2022/03/07 01:50:28;;;;;;;14.83;10.13;;;-1.30;99.90;-2.40;100709;;;;550513;256;24161;-80
2022/03/07 01:52:56;;;;;;;13.67;9.87;;;-1.30;99.90;-2.40;100707;;;;550543;256;24141;-80
2022/03/07 01:55:24;;;;;;;16.47;10.20;;;-1.30;99.90;-2.50;100695;;;;558491;256;24131;-79
2022/03/07 01:57:52;;;;;;;21.37;9.73;;;-1.30;99.90;-2.50;100698;;;;545651;256;35801;-79
2022/03/07 02:00:20;;;;;;;9.23;4.97;;;-1.40;99.90;-2.50;100692;;;;550721;256;24155;-78
2022/03/07 02:02:49;;;;;;;10.70;6.23;;;-1.40;99.90;-2.50;100691;;;;550899;256;24144;-79
2022/03/07 02:05:17;;;;;;;14.20;5.80;;;-1.40;99.90;-2.50;100698;;;;559060;256;24242;-80
2022/03/07 02:07:48;;;;;;;12.37;5.30;;;-1.40;99.90;-2.50;100692;;;;555200;256;24288;-80
2022/03/07 02:10:13;;;;;;;13.33;8.63;;;-1.40;99.90;-2.60;100692;;;;550861;256;24182;-80
2022/03/07 02:12:44;;;;;;;19.03;10.80;;;-1.40;99.90;-2.50;100692;;;;558960;254;24195;-80
2022/03/07 02:15:09;;;;;;;16.10;10.90;;;-1.40;99.90;-2.50;100689;;;;549148;256;24220;-79
2022/03/07 02:17:37;;;;;;;20.87;13.77;;;-1.40;99.90;-2.60;100696;;;;556731;253;24213;-80
2022/03/07 02:20:09;;;;;;;20.37;14.77;;;-1.40;99.90;-2.50;100692;;;;560546;256;24225;-78
2022/03/07 02:22:34;;;;;;;20.57;14.40;;;-1.40;99.90;-2.50;100693;;;;551868;256;24173;-79
2022/03/07 02:25:03;;;;;;;20.63;13.40;;;-1.40;99.90;-2.50;100694;;;;551859;256;24211;-79
2022/03/07 02:27:32;;;;;;;17.73;12.33;;;-1.40;99.90;-2.50;100701;;;;550374;256;24157;-80
2022/03/07 02:30:05;;;;;;;19.10;11.67;;;-1.40;99.90;-2.50;100693;;;;551691;256;24142;-79
2022/03/07 02:32:30;;;;;;;15.77;11.00;;;-1.40;99.90;-2.60;100694;;;;559619;256;24139;-80
2022/03/07 02:34:58;;;;;;;20.87;11.67;;;-1.40;99.90;-2.60;100701;;;;551648;256;24145;-80
2022/03/07 02:37:26;;;;;;;15.97;10.63;;;-1.50;99.90;-2.60;100700;;;;559454;256;24149;-80
2022/03/07 02:39:57;;;;;;;17.97;12.30;;;-1.50;99.90;-2.60;100694;;;;551334;256;24144;-80
2022/03/07 02:42:22;;;;;;;21.97;12.47;;;-1.50;99.90;-2.60;100693;;;;551253;256;25291;-80
2022/03/07 02:44:53;;;;;;;18.40;13.33;;;-1.50;99.90;-2.60;100691;;;;551527;256;24143;-79
2022/03/07 02:47:19;;;;;;;21.17;12.30;;;-1.50;99.90;-2.60;100702;;;;551185;256;24151;-79
2022/03/07 02:49:47;;;;;;;19.87;11.43;;;-1.40;99.90;-2.60;100712;;;;551051;256;24205;-80
2022/03/07 02:52:19;;;;;;;21.87;12.93;;;-1.40;99.90;-2.50;100700;;;;551081;256;24141;-80
2022/03/07 02:54:44;;;;;;;19.50;12.50;;;-1.40;99.90;-2.50;100698;;;;550616;256;24147;-78
2022/03/07 02:57:12;;;;;;;24.83;13.73;;;-1.40;99.90;-2.50;100704;;;;551002;256;24194;-80
2022/03/07 02:59:40;;;;;;;22.53;14.33;;;-1.30;99.90;-2.40;100708;;;;550764;256;24202;-79
2022/03/07 03:02:13;;;;;;;21.73;13.13;;;-1.30;99.90;-2.40;100698;;;;550776;256;24147;-81
2022/03/07 03:04:39;;;;;;;21.90;14.40;;;-1.30;99.90;-2.40;100700;;;;548895;256;24164;-79
2022/03/07 03:07:07;;;;;;;22.13;14.20;;;-1.30;99.90;-2.50;100695;;;;550589;256;24138;-78
2022/03/07 03:09:35;;;;;;;21.10;13.60;;;-1.30;99.90;-2.40;100701;;;;550530;256;24147;-80
2022/03/07 03:12:04;;;;;;;19.93;13.50;;;-1.40;99.90;-2.50;100713;;;;550472;256;24146;-79
2022/03/07 03:14:32;;;;;;;21.63;13.00;;;-1.40;99.90;-2.50;100695;;;;558673;256;24142;-80
2022/03/07 03:17:02;;;;;;;23.87;14.47;;;-1.40;99.90;-2.50;100709;;;;550717;256;24141;-80
2022/03/07 03:19:28;;;;;;;21.50;13.13;;;-1.40;99.90;-2.50;100706;;;;551507;256;24131;-80
2022/03/07 03:21:56;;;;;;;24.37;14.93;;;-1.40;99.90;-2.50;100705;;;;551491;256;24127;-80
2022/03/07 03:24:23;;;;;;;26.15;13.20;;;-1.40;99.90;-2.50;100701;;;;546613;256;35715;-80
2022/03/07 03:26:51;;;;;;;16.07;7.73;;;-1.40;99.90;-2.50;100695;;;;551416;256;24143;-80
2022/03/07 03:29:19;;;;;;;22.95;13.27;;;-1.40;99.90;-2.50;100705;;;;554852;254;35707;-81
2022/03/07 03:31:47;;;;;;;15.73;9.27;;;-1.40;99.90;-2.50;100716;;;;552578;256;24244;-80
2022/03/07 03:34:15;;;;;;;13.80;6.00;;;-1.30;99.90;-2.50;100715;;;;560867;255;24138;-79
2022/03/07 03:36:43;;;;;;;11.37;6.00;;;-1.40;99.90;-2.50;100712;;;;560442;255;24189;-79
2022/03/07 03:39:11;;;;;;;10.60;5.10;;;-1.30;99.90;-2.50;100705;;;;551996;256;24210;-81
2022/03/07 03:41:39;;;;;;;13.13;7.13;;;-1.30;99.90;-2.40;100715;;;;560094;254;24135;-79
2022/03/07 03:44:07;;;;;;;13.63;7.40;;;-1.30;99.90;-2.50;100704;;;;560150;256;24138;-78
2022/03/07 03:46:38;;;;;;;12.33;6.83;;;-1.40;99.90;-2.50;100708;;;;560051;254;24225;-78
2022/03/07 03:49:03;;;;;;;13.30;7.33;;;-1.40;99.90;-2.50;100710;;;;548131;256;24155;-78
2022/03/07 03:51:31;;;;;;;19.50;9.07;;;-1.40;99.90;-2.50;100712;;;;548612;259;25199;-79
2022/03/07 03:53:58;;;;;;;22.00;11.90;;;-1.40;99.90;-2.50;100708;;;;545149;261;24186;-79
2022/03/07 03:56:29;;;;;;;23.93;15.53;;;-1.40;99.90;-2.50;100717;;;;547865;258;24052;-79
2022/03/07 03:58:54;;;;;;;25.40;15.00;;;-1.40;99.90;-2.50;100717;;;;539983;261;24315;-79
2022/03/07 04:01:22;;;;;;;22.53;15.00;;;-1.40;99.90;-2.50;100713;;;;548343;258;24048;-79
2022/03/07 04:03:50;;;;;;;27.10;15.33;;;-1.40;99.90;-2.60;100716;;;;541807;261;24171;-79
2022/03/07 04:06:18;;;;;;;26.20;13.40;;;-1.40;99.90;-2.50;100711;;;;548534;258;24065;-79
2022/03/07 04:08:52;;;;;;;20.90;13.37;;;-1.50;99.90;-2.50;100711;;;;541798;261;24176;-80
2022/03/07 04:11:21;;;;;;;22.00;14.93;;;-1.40;99.90;-2.50;100698;;;;536767;261;24192;-82
2022/03/07 04:13:47;;;;;;;22.03;14.33;;;-1.40;99.90;-2.40;100703;;;;548420;258;24094;-79
2022/03/07 04:16:16;;;;;;;25.90;14.07;;;-1.30;99.90;-2.40;100713;;;;541671;261;24179;-80
2022/03/07 04:18:43;;;;;;;20.97;12.13;;;-1.30;99.90;-2.40;100708;;;;548011;257;24050;-80
2022/03/07 04:21:11;;;;;;;19.80;12.93;;;-1.30;99.90;-2.50;100701;;;;552060;256;24131;-81
2022/03/07 04:23:39;;;;;;;19.57;13.10;;;-1.30;99.90;-2.50;100699;;;;551954;256;24135;-80
2022/03/07 04:26:07;;;;;;;19.37;12.50;;;-1.30;99.90;-2.50;100706;;;;551891;256;24119;-79
2022/03/07 04:28:35;;;;;;;19.17;12.47;;;-1.40;99.90;-2.50;100696;;;;551498;256;24182;-79
2022/03/07 04:31:03;;;;;;;20.90;12.50;;;-1.40;99.90;-2.50;100699;;;;551059;256;24149;-79
2022/03/07 04:33:31;;;;;;;18.03;12.03;;;-1.40;99.90;-2.50;100696;;;;550979;256;24143;-79
2022/03/07 04:35:59;;;;;;;21.57;13.03;;;-1.40;99.90;-2.50;100696;;;;550807;256;24147;-79
2022/03/07 04:38:27;;;;;;;20.70;13.73;;;-1.40;99.90;-2.50;100703;;;;550838;256;24180;-80
2022/03/07 04:40:55;;;;;;;18.87;11.97;;;-1.40;99.90;-2.60;100698;;;;551062;254;24173;-79
2022/03/07 04:43:25;;;;;;;16.37;10.97;;;-1.40;99.90;-2.60;100702;;;;552040;256;24150;-78
2022/03/07 04:45:52;;;;;;;17.53;11.20;;;-1.40;99.90;-2.60;100705;;;;551517;256;24221;-78
2022/03/07 04:48:21;;;;;;;22.03;14.47;;;-1.40;99.90;-2.60;100707;;;;549222;256;24134;-79
2022/03/07 04:50:49;;;;;;;24.50;12.97;;;-1.50;99.90;-2.60;100703;;;;551428;256;25184;-79
2022/03/07 04:53:17;;;;;;;20.27;12.37;;;-1.50;99.90;-2.60;100710;;;;551471;256;24201;-79
2022/03/07 04:55:45;;;;;;;24.30;13.33;;;-1.50;99.90;-2.60;100711;;;;551764;256;24160;-79
2022/03/07 04:58:13;;;;;;;17.93;12.47;;;-1.50;99.90;-2.70;100703;;;;551485;256;24151;-80
2022/03/07 05:00:41;;;;;;;20.17;12.47;;;-1.50;99.90;-2.70;100705;;;;550872;256;24136;-78
2022/03/07 05:03:08;;;;;;;20.13;11.67;;;-1.50;99.90;-2.70;100717;;;;550954;256;24154;-79
2022/03/07 05:05:36;;;;;;;21.90;12.47;;;-1.60;99.90;-2.70;100708;;;;551148;254;24153;-79
2022/03/07 05:08:05;;;;;;;19.47;11.97;;;-1.60;99.90;-2.70;100703;;;;559238;256;24144;-79
2022/03/07 05:10:33;;;;;;;20.10;12.43;;;-1.60;99.90;-2.70;100709;;;;549356;256;24141;-80
2022/03/07 05:13:02;;;;;;;21.77;13.57;;;-1.60;99.90;-2.70;100705;;;;551543;256;24136;-80
2022/03/07 05:15:31;;;;;;;20.93;12.87;;;-1.60;99.90;-2.70;100710;;;;559218;254;25186;-80
2022/03/07 05:17:59;;;;;;;21.93;13.97;;;-1.50;99.90;-2.60;100705;;;;551197;256;24187;-79
2022/03/07 05:20:28;;;;;;;24.67;13.80;;;-1.50;99.90;-2.60;100710;;;;550816;256;24150;-81
2022/03/07 05:22:56;;;;;;;20.90;12.13;;;-1.50;99.90;-2.60;100715;;;;551255;256;24182;-79
2022/03/07 05:25:24;;;;;;;20.00;11.30;;;-1.50;99.90;-2.50;100720;;;;559357;255;24232;-79
2022/03/07 05:27:55;;;;;;;20.17;12.93;;;-1.40;99.90;-2.60;100709;;;;548958;256;24168;-81
2022/03/07 05:30:20;;;;;;;17.70;10.93;;;-1.40;99.90;-2.60;100711;;;;551063;256;24181;-81
2022/03/07 05:32:48;;;;;;;17.73;10.77;;;-1.40;99.90;-2.50;100721;;;;551333;256;24176;-81
2022/03/07 05:35:19;;;;;;;22.93;12.20;;;-1.40;99.90;-2.50;100720;;;;551504;256;24203;-79
2022/03/07 05:37:47;;;;;;;17.87;10.47;;;-1.40;99.90;-2.50;100720;;;;551272;256;24166;-81
2022/03/07 05:40:11;;;;;;;22.13;10.17;;;-1.40;99.90;-2.40;100709;;;;559482;254;24162;-82
2022/03/07 05:42:40;;;;;;;16.07;9.87;;;-1.30;99.90;-2.40;100717;;;;551716;256;24162;-80
2022/03/07 05:45:08;;;;;;;18.10;11.57;;;-1.30;99.90;-2.40;100727;;;;551495;256;24128;-81
2022/03/07 05:47:39;;;;;;;19.00;12.10;;;-1.30;99.90;-2.30;100714;;;;551316;254;24197;-82
2022/03/07 05:50:04;;;;;;;8.77;5.27;;;-1.20;99.90;-2.30;100713;;;;550680;256;24148;-80
2022/03/07 05:52:35;;;;;;;13.30;6.30;;;-1.20;99.90;-2.20;100717;;;;551742;254;24169;-81
2022/03/07 05:55:00;;;;;;;10.20;5.43;;;-1.10;99.90;-2.20;100705;;;;552353;256;24139;-80
2022/03/07 05:57:28;;;;;;;9.07;4.53;;;-1.10;99.90;-2.10;100714;;;;560315;255;24205;-79
2022/03/07 05:59:56;;;;;;;13.20;4.73;;;-1.00;99.90;-2.10;100708;;;;560338;256;24211;-80
2022/03/07 06:02:27;;;;;;;10.27;5.63;;;-1.00;99.90;-2.00;100712;;;;560207;254;24194;-79
2022/03/07 06:04:52;;;;;;;14.80;5.60;;;-1.00;99.90;-2.00;100721;;;;549547;256;24156;-79
2022/03/07 06:07:20;;;;;;;10.33;4.93;;;-0.90;99.90;-1.90;100707;;;;559957;254;24137;-80
2022/03/07 06:09:48;;;;;;;17.20;9.98;;;-0.90;99.90;-1.90;100708;;;;554994;254;35694;-81
2022/03/07 06:12:16;;;;;;;11.30;5.23;;;-0.80;99.90;-1.80;100706;;;;559593;255;24149;-79
2022/03/07 06:14:44;;;;;;;10.07;5.87;;;-0.70;99.90;-1.80;100705;;;;559611;256;24179;-80
2022/03/07 06:17:12;;;;;;;9.67;4.07;;;-0.70;99.90;-1.70;100717;;;;559591;255;24144;-80
2022/03/07 06:19:40;;;;;;;7.53;4.33;;;-0.60;99.90;-1.60;100712;;;;559722;256;24168;-80
2022/03/07 06:22:08;;;;;;;4.00;3.17;;;-0.60;99.90;-1.60;100711;;;;559546;255;24159;-80
2022/03/07 06:24:35;;;;;;;7.83;5.50;;;-0.50;99.90;-1.50;100713;;;;559173;255;24151;-80
2022/03/07 06:27:03;;;;;;;8.43;4.40;;;-0.40;99.90;-1.40;100708;;;;559068;255;24165;-80
2022/03/07 06:29:32;;;;;;;7.73;4.43;;;-0.30;99.90;-1.30;100714;;;;550948;256;24166;-79
2022/03/07 06:32:00;;;;;;;8.00;4.87;;;-0.30;99.90;-1.30;100706;;;;558850;256;24146;-79
2022/03/07 06:34:28;;;;;;;3.97;3.20;;;-0.20;99.90;-1.00;100701;;;;558904;255;24150;-79
2022/03/07 06:36:56;;;;;;;10.17;3.77;;;0.10;99.90;-0.10;100702;;;;558655;255;24147;-80
2022/03/07 06:39:26;;;;;;;9.03;5.07;;;0.70;99.90;1.30;100714;;;;558856;255;24142;-80
2022/03/07 06:41:52;;;;;;;10.67;4.50;;;1.90;99.90;3.10;100717;;;;558581;255;24150;-80
2022/03/07 06:44:20;;;;;;;9.33;4.83;;;5.30;99.90;5.10;100730;;;;558727;255;24199;-81
2022/03/07 06:46:48;;;;;;;6.67;5.13;;;5.20;99.90;6.40;100736;;;;554549;256;24166;-81
2022/03/07 06:49:16;;;;;;;7.37;5.33;;;6.60;99.90;7.80;100741;;;;558501;253;24163;-80
2022/03/07 06:51:44;;;;;;;9.30;5.97;;;8.00;99.90;9.20;100750;;;;558627;255;24157;-80
2022/03/07 06:54:12;;;;;;;9.77;5.63;;;9.50;99.90;11.00;100760;;;;558479;256;24142;-81
2022/03/07 06:56:44;;;;;;;7.60;5.03;;;11.10;99.90;12.50;100769;;;;558427;255;24152;-80
2022/03/07 06:59:08;;;;;;;9.87;4.73;;;12.70;99.90;13.50;100767;;;;558260;256;24197;-80
2022/03/07 07:01:36;;;;;;;6.33;4.77;;;13.90;99.90;14.30;100766;;;;558413;256;24180;-79
2022/03/07 07:04:03;;;;;;;6.23;4.40;;;14.70;99.90;15.10;100764;;;;558894;254;24146;-80
2022/03/07 07:06:31;;;;;;;7.47;4.50;;;15.50;99.90;16.10;100762;;;;559787;256;24159;-80
2022/03/07 07:08:59;;;;;;;7.50;4.43;;;16.50;96.10;16.90;100763;;;;559591;256;24154;-80
2022/03/07 07:11:30;;;;;;;6.10;4.03;;;17.30;94.30;17.50;100756;;;;555470;256;24200;-80
2022/03/07 07:13:55;;;;;;;5.80;4.30;;;18.00;78.80;17.80;100756;;;;558912;252;23171;-80
2022/03/07 07:16:23;;;;;;;5.03;3.63;;;18.50;73.20;18.40;100757;;;;559124;256;24165;-80
2022/03/07 07:18:51;;;;;;;7.13;4.33;;;19.00;65.90;18.70;100750;;;;558950;255;24186;-79
2022/03/07 07:21:19;;;;;;;5.83;3.77;;;19.30;63.20;18.80;100757;;;;559078;254;24134;-78
2022/03/07 07:23:47;;;;;;;5.13;4.20;;;19.50;63.80;18.90;100752;;;;558748;256;24151;-79
2022/03/07 07:26:15;;;;;;;7.80;3.47;;;19.60;62.10;19.20;100757;;;;558664;255;24191;-79
2022/03/07 07:28:43;;;;;;;4.80;3.73;;;19.80;58.40;19.50;100760;;;;558807;255;24152;-80
2022/03/07 07:31:11;;;;;;;5.33;3.63;;;20.00;59.80;20.30;100760;;;;558713;256;24163;-78
2022/03/07 07:33:39;;;;;;;3.83;3.40;;;21.40;55.80;21.00;100757;;;;558826;255;24234;-81
2022/03/07 07:36:07;;;;;;;3.40;2.97;;;21.40;55.80;21.60;100770;;;;558753;255;24211;-79
2022/03/07 07:38:35;;;;;;;4.67;3.20;;;22.00;53.90;21.80;100774;;;;558949;254;24230;-80
2022/03/07 07:41:04;;;;;;;4.20;3.33;;;22.80;50.60;22.40;100771;;;;558633;256;24131;-81
2022/03/07 07:43:32;;;;;;;7.67;3.60;;;22.80;50.60;22.60;100771;;;;558451;255;24144;-81
2022/03/07 07:46:00;;;;;;;4.03;2.57;;;23.10;51.20;22.60;100772;;;;558682;256;24150;-78
2022/03/07 07:48:27;;;;;;;5.63;3.60;;;23.30;48.70;22.60;100776;;;;547949;254;24200;-78
2022/03/07 07:50:55;;;;;;;3.27;2.90;;;23.20;48.60;22.50;100767;;;;559325;253;24151;-78
2022/03/07 07:53:23;;;;;;;3.77;2.50;;;23.10;48.50;22.60;100775;;;;559077;256;24209;-78
2022/03/07 07:55:51;;;;;;;3.93;2.83;;;23.20;48.20;23.20;100777;;;;558959;256;24256;-79
2022/03/07 07:58:19;;;;;;;2.60;1.77;;;23.60;48.30;23.60;100779;;;;558673;255;23188;-81
2022/03/07 08:00:48;;;;;;;3.00;2.70;;;24.50;46.60;24.10;100791;;;;558453;256;24172;-80
2022/03/07 08:03:16;;;;;;;3.57;2.83;;;25.20;44.20;24.70;100789;;;;558628;256;25216;-79
2022/03/07 08:05:48;;;;;;;4.07;3.13;;;25.40;44.50;24.90;100794;;;;558498;256;23234;-81
2022/03/07 08:08:13;;;;;;;5.23;4.67;;;25.30;44.40;25.10;100798;;;;558524;255;23164;-80
2022/03/07 08:10:41;;;;;;;4.17;3.73;;;25.70;44.00;25.00;100801;;;;558575;255;24141;-80
2022/03/07 08:13:09;;;;;;;7.93;6.00;;;25.70;43.30;25.60;100807;;;;558432;255;23208;-79
2022/03/07 08:15:37;;;;;;;3.90;3.50;;;26.10;42.20;25.40;100809;;;;558891;254;23153;-80
2022/03/07 08:18:05;;;;;;;6.43;5.73;;;26.10;41.20;25.10;100807;;;;560157;254;24162;-82
2022/03/07 08:20:35;;;;;;;10.07;6.37;;;25.80;41.90;25.20;100803;;;;559814;256;23144;-79
2022/03/07 08:23:01;;;;;;;6.07;3.93;;;25.90;41.50;25.60;100798;;;;548517;256;24143;-81
2022/03/07 08:25:33;;;;;;;8.67;7.20;;;26.60;40.80;26.00;100805;;;;551508;256;24181;-81
2022/03/07 08:27:57;;;;;;;2.87;2.57;;;26.50;40.70;26.20;100807;;;;558895;256;24139;-79
2022/03/07 08:30:28;;;;;;;4.17;3.70;;;26.80;39.80;26.90;100814;;;;555314;254;23181;-79
2022/03/07 08:32:56;;;;;;;3.30;2.43;;;27.40;39.40;26.60;100817;;;;550434;256;23165;-79
2022/03/07 08:35:21;;;;;;;2.77;1.47;;;27.40;38.60;26.30;100818;;;;550539;254;23157;-78
2022/03/07 08:37:49;;;;;;;2.83;2.00;;;27.20;38.70;26.30;100845;;;;558863;256;23243;-79
2022/03/07 08:40:17;;;;;;;2.90;1.53;;;26.90;39.20;26.50;100839;;;;550680;256;24176;-80
2022/03/07 08:42:45;;;;;;;5.67;2.03;;;27.20;38.20;25.80;100837;;;;550593;256;23175;-79
2022/03/07 08:45:13;;;;;;;3.53;1.70;;;26.80;38.80;25.20;100836;;;;550685;256;24199;-80
2022/03/07 08:47:40;;;;;;;3.37;1.80;;;26.20;38.80;24.80;100844;;;;549903;256;23181;-80
2022/03/07 08:50:08;;;;;;;1.60;1.50;;;25.80;39.40;24.40;100844;;;;550760;256;23177;-81
2022/03/07 08:52:36;;;;;;;2.30;1.87;;;25.50;39.50;24.50;100848;;;;550834;256;23150;-79
2022/03/07 08:55:04;;;;;;;3.10;1.67;;;25.30;39.80;24.20;100851;;;;550767;256;23155;-79
2022/03/07 08:57:32;;;;;;;4.40;2.13;;;25.20;39.80;24.30;100852;;;;550722;256;23154;-78
2022/03/07 09:00:01;;;;;;;2.37;1.80;;;25.50;39.50;24.70;100844;;;;558875;256;23202;-80
2022/03/07 09:02:29;;;;;;;3.40;1.50;;;25.40;39.40;24.70;100855;;;;558853;254;23156;-81
2022/03/07 09:04:57;;;;;;;2.63;2.10;;;25.50;39.50;24.70;100854;;;;558862;255;24166;-80
2022/03/07 09:07:28;;;;;;;2.13;1.70;;;25.60;39.40;24.40;100846;;;;558867;255;23144;-80
2022/03/07 09:09:56;;;;;;;3.07;2.30;;;25.50;39.60;24.60;100844;;;;558663;256;23160;-79
2022/03/07 09:12:22;;;;;;;2.87;2.50;;;25.60;39.60;24.30;100857;;;;558691;253;24183;-78
2022/03/07 09:14:48;;;;;;;3.57;2.40;;;25.40;39.30;23.90;100856;;;;558830;256;23163;-78
2022/03/07 09:17:16;;;;;;;2.60;2.40;;;25.00;39.80;23.70;100854;;;;558826;256;24195;-79
2022/03/07 09:19:45;;;;;;;5.47;3.57;;;24.80;40.60;23.70;100861;;;;558844;256;23162;-81
2022/03/07 09:22:14;;;;;;;3.00;2.80;;;25.10;39.90;24.00;100855;;;;558914;254;24155;-80
2022/03/07 09:24:42;;;;;;;4.43;3.23;;;25.10;39.90;23.40;100860;;;;558846;254;23156;-81
2022/03/07 09:27:09;;;;;;;4.73;3.83;;;24.60;40.50;23.50;100860;;;;559139;254;23174;-81
2022/03/07 09:29:37;;;;;;;5.67;4.43;;;24.60;40.80;23.40;100852;;;;559758;254;24158;-81
2022/03/07 09:32:09;;;;;;;5.43;4.07;;;24.50;40.50;22.90;100866;;;;559522;256;23160;-80
2022/03/07 09:34:36;;;;;;;6.47;3.20;;;24.10;40.70;22.50;100873;;;;548093;256;23168;-80
2022/03/07 09:37:02;;;;;;;4.60;2.83;;;23.60;41.90;21.80;100872;;;;550959;256;24186;-80
2022/03/07 09:39:29;;;;;;;3.70;2.50;;;23.20;42.20;20.50;100868;;;;559026;256;24151;-79
2022/03/07 09:41:57;;;;;;;4.53;2.80;;;22.20;43.20;18.80;100873;;;;558993;256;24141;-79
2022/03/07 09:44:28;;;;;;;4.80;2.47;;;20.70;45.30;17.70;100868;;;;558990;255;23178;-82
2022/03/07 09:46:53;;;;;;;2.63;2.23;;;19.50;46.50;16.70;100885;;;;555823;256;24180;-80
2022/03/07 09:49:21;;;;;;;4.20;1.77;;;18.40;47.70;15.60;100875;;;;558765;253;24242;-81
2022/03/07 09:51:49;;;;;;;3.00;2.13;;;16.40;51.20;15.00;100875;;;;558757;254;25200;-79
2022/03/07 09:54:18;;;;;;;2.20;1.53;;;15.90;53.40;14.60;100872;;;;559048;254;24156;-82
2022/03/07 09:56:46;;;;;;;2.60;1.80;;;15.80;52.60;14.40;100889;;;;559314;256;24131;-81
2022/03/07 09:59:14;;;;;;;6.73;1.77;;;15.60;53.10;14.30;100873;;;;559165;255;24143;-80
2022/03/07 10:01:42;;;;;;;8.57;1.83;;;15.60;53.70;15.00;100874;;;;551029;256;24179;-79
2022/03/07 10:04:10;;;;;;;3.93;1.70;;;16.10;53.20;16.00;100870;;;;559039;254;24136;-79
2022/03/07 10:06:38;;;;;;;4.57;1.90;;;16.90;52.30;16.50;100880;;;;550687;256;24156;-77
2022/03/07 10:09:06;;;;;;;2.37;1.37;;;18.00;50.20;16.70;100870;;;;556073;256;24165;-76
2022/03/07 10:11:35;;;;;;;2.53;1.37;;;18.10;49.60;16.60;100885;;;;550688;256;24132;-78
2022/03/07 10:14:04;;;;;;;3.20;1.30;;;17.90;49.20;16.30;100871;;;;558841;254;24144;-77
2022/03/07 10:16:45;;;;;;;1.13;1.07;;;17.90;49.80;16.40;100872;;;;558787;255;24328;-78
2022/03/07 10:19:15;;;;;;;4.90;1.63;;;17.90;49.80;16.50;100878;;;;550803;256;24131;-78
2022/03/07 10:21:47;;;;;;;2.50;1.20;;;18.20;48.90;16.70;100876;;;;558908;256;24161;-78
2022/03/07 10:24:15;;;;;;;4.50;1.40;;;18.10;48.90;16.70;100880;;;;550589;256;24162;-79
2022/03/07 10:26:43;;;;;;;3.70;1.83;;;18.10;49.10;16.10;100885;;;;548029;256;24129;-78
2022/03/07 10:29:11;;;;;;;3.33;1.63;;;17.70;49.40;15.70;100876;;;;558830;255;24161;-78
2022/03/07 10:31:44;;;;;;;3.47;1.30;;;16.90;50.60;15.20;100875;;;;550464;256;24249;-78
2022/03/07 10:34:08;;;;;;;8.63;1.70;;;16.50;51.90;14.80;100890;;;;558577;256;24142;-78
2022/03/07 10:36:39;;;;;;;4.47;1.40;;;16.40;51.80;13.90;100879;;;;550380;256;24179;-77
2022/03/07 10:39:12;;;;;;;5.20;1.20;;;15.70;52.60;13.00;100876;;;;558809;254;24152;-78
2022/03/07 10:41:40;;;;;;;3.13;1.90;;;15.00;53.20;12.40;100883;;;;551669;256;24163;-80
2022/03/07 10:44:08;;;;;;;4.30;1.87;;;14.30;55.10;11.90;100882;;;;551384;256;24216;-81
2022/03/07 10:46:36;;;;;;;1.93;1.30;;;13.80;56.30;11.50;100888;;;;551439;254;24143;-79
2022/03/07 10:49:04;;;;;;;3.30;1.30;;;13.30;57.70;10.90;100881;;;;559214;253;24143;-80
2022/03/07 10:51:32;;;;;;;1.40;0.80;;;12.70;59.20;10.20;100888;;;;551042;256;24210;-81
2022/03/07 10:54:11;;;;;;;2.43;1.57;;;12.00;59.30;9.50;100880;;;;559911;254;24142;-78
2022/03/07 10:56:52;;;;;;;6.50;1.00;;;10.40;64.90;8.90;100880;;;;551541;256;24181;-79
2022/03/07 10:59:29;;;;;;;1.33;1.07;;;10.40;64.40;8.30;100880;;;;551201;256;24206;-82
2022/03/07 11:02:06;;;;;;;4.27;1.27;;;9.70;66.80;8.00;100876;;;;550828;256;24170;-82
2022/03/07 11:04:37;;;;;;;2.43;1.17;;;9.10;68.60;7.70;100879;;;;558766;256;24146;-77
2022/03/07 11:07:02;;;;;;;4.50;2.08;;;8.70;71.50;7.30;100876;;;;546049;256;35632;-79